sensor_id;sensor_type;location;lat;lon;timestamp;pressure;altitude;pressure_sealevel;temperature;humidity
48892;BME280;50130;52.150;5.236;2022-11-03T00:00:10;101165.0;;;13.47;74.37
48892;BME280;50130;52.150;5.236;2022-11-03T00:03:25;101165.0;;;13.53;73.83
48892;BME280;50130;52.150;5.236;2022-11-03T00:06:03;101159.0;;;13.37;74.22
48892;BME280;50130;52.150;5.236;2022-11-03T00:07:40;101158.0;;;13.42;74.19
48892;BME280;50130;52.150;5.236;2022-11-03T00:09:18;101143.0;;;13.39;74.55
48892;BME280;50130;52.150;5.236;2022-11-03T00:11:00;101136.0;;;13.35;74.55
48892;BME280;50130;52.150;5.236;2022-11-03T00:12:38;101130.0;;;13.35;74.3
48892;BME280;50130;52.150;5.236;2022-11-03T00:15:52;101125.0;;;13.33;74.36
48892;BME280;50130;52.150;5.236;2022-11-03T00:17:28;101124.0;;;13.36;74.22
48892;BME280;50130;52.150;5.236;2022-11-03T00:19:05;101120.0;;;13.41;74.16
48892;BME280;50130;52.150;5.236;2022-11-03T00:22:18;101120.0;;;13.49;73.83
48892;BME280;50130;52.150;5.236;2022-11-03T00:23:55;101118.0;;;13.37;74.36
48892;BME280;50130;52.150;5.236;2022-11-03T00:25:31;101114.0;;;13.31;74.44
48892;BME280;50130;52.150;5.236;2022-11-03T00:27:07;101105.0;;;13.34;74.41
48892;BME280;50130;52.150;5.236;2022-11-03T00:30:21;101094.0;;;13.32;74.61
48892;BME280;50130;52.150;5.236;2022-11-03T00:31:57;101084.0;;;13.36;74.22
48892;BME280;50130;52.150;5.236;2022-11-03T00:33:34;101083.0;;;13.29;74.34
48892;BME280;50130;52.150;5.236;2022-11-03T00:36:47;101088.0;;;13.35;74.28
48892;BME280;50130;52.150;5.236;2022-11-03T00:38:23;101089.0;;;13.34;74.25
48892;BME280;50130;52.150;5.236;2022-11-03T00:40:00;101089.0;;;13.27;74.3
48892;BME280;50130;52.150;5.236;2022-11-03T00:43:14;101089.0;;;13.44;73.94
48892;BME280;50130;52.150;5.236;2022-11-03T00:44:49;101084.0;;;13.41;74.22
48892;BME280;50130;52.150;5.236;2022-11-03T00:46:26;101084.0;;;13.4;74.11
48892;BME280;50130;52.150;5.236;2022-11-03T00:48:36;101085.0;;;13.33;74.3
48892;BME280;50130;52.150;5.236;2022-11-03T00:50:12;101089.0;;;13.35;74.33
48892;BME280;50130;52.150;5.236;2022-11-03T00:53:24;101087.0;;;13.31;74.17
48892;BME280;50130;52.150;5.236;2022-11-03T00:55:00;101083.0;;;13.32;74.44
48892;BME280;50130;52.150;5.236;2022-11-03T00:56:38;101081.0;;;13.3;74.34
48892;BME280;50130;52.150;5.236;2022-11-03T00:59:51;101082.0;;;13.26;74.72
48892;BME280;50130;52.150;5.236;2022-11-03T01:01:28;101081.0;;;13.24;74.8
48892;BME280;50130;52.150;5.236;2022-11-03T01:03:06;101084.0;;;13.35;74.49
48892;BME280;50130;52.150;5.236;2022-11-03T01:07:35;101075.0;;;13.37;74.37
48892;BME280;50130;52.150;5.236;2022-11-03T01:09:11;101072.0;;;13.39;74.16
48892;BME280;50130;52.150;5.236;2022-11-03T01:13:28;101066.0;;;13.21;74.84
48892;BME280;50130;52.150;5.236;2022-11-03T01:16:42;101066.0;;;13.18;75.38
48892;BME280;50130;52.150;5.236;2022-11-03T01:18:18;101058.0;;;13.25;75.33
48892;BME280;50130;52.150;5.236;2022-11-03T01:19:54;101059.0;;;13.25;75.0
48892;BME280;50130;52.150;5.236;2022-11-03T01:21:30;101062.0;;;13.2;75.36
48892;BME280;50130;52.150;5.236;2022-11-03T01:24:43;101052.0;;;13.27;75.3
48892;BME280;50130;52.150;5.236;2022-11-03T01:26:20;101050.0;;;13.26;75.27
48892;BME280;50130;52.150;5.236;2022-11-03T01:27:57;101045.0;;;13.31;75.41
48892;BME280;50130;52.150;5.236;2022-11-03T01:31:11;101042.0;;;13.2;75.98
48892;BME280;50130;52.150;5.236;2022-11-03T01:32:48;101037.0;;;13.28;75.66
48892;BME280;50130;52.150;5.236;2022-11-03T01:34:24;101040.0;;;13.23;75.95
48892;BME280;50130;52.150;5.236;2022-11-03T01:37:39;101039.0;;;13.33;75.66
48892;BME280;50130;52.150;5.236;2022-11-03T01:39:16;101041.0;;;13.26;75.83
48892;BME280;50130;52.150;5.236;2022-11-03T01:40:53;101043.0;;;13.25;75.97
48892;BME280;50130;52.150;5.236;2022-11-03T01:42:29;101031.0;;;13.28;76.06
48892;BME280;50130;52.150;5.236;2022-11-03T01:46:21;101030.0;;;13.34;75.97
48892;BME280;50130;52.150;5.236;2022-11-03T01:48:00;101030.0;;;13.27;76.16
48892;BME280;50130;52.150;5.236;2022-11-03T01:49:41;101022.0;;;13.13;76.8
48892;BME280;50130;52.150;5.236;2022-11-03T01:51:20;101015.0;;;13.29;76.42
48892;BME280;50130;52.150;5.236;2022-11-03T01:53:00;101016.0;;;13.3;76.36
48892;BME280;50130;52.150;5.236;2022-11-03T01:56:18;101013.0;;;13.23;76.55
48892;BME280;50130;52.150;5.236;2022-11-03T01:57:59;101013.0;;;13.33;76.37
48892;BME280;50130;52.150;5.236;2022-11-03T01:59:38;101017.0;;;13.25;76.7
48892;BME280;50130;52.150;5.236;2022-11-03T02:01:16;101016.0;;;13.36;76.52
48892;BME280;50130;52.150;5.236;2022-11-03T02:04:31;101013.0;;;13.3;76.69
48892;BME280;50130;52.150;5.236;2022-11-03T02:06:08;101006.0;;;13.24;77.05
48892;BME280;50130;52.150;5.236;2022-11-03T02:07:48;101002.0;;;13.21;77.49
48892;BME280;50130;52.150;5.236;2022-11-03T02:13:44;100995.0;;;13.38;76.77
48892;BME280;50130;52.150;5.236;2022-11-03T02:15:21;100994.0;;;13.37;76.97
48892;BME280;50130;52.150;5.236;2022-11-03T02:17:00;100990.0;;;13.23;77.61
48892;BME280;50130;52.150;5.236;2022-11-03T02:18:42;100992.0;;;13.2;77.89
48892;BME280;50130;52.150;5.236;2022-11-03T02:20:22;100986.0;;;13.27;77.55
48892;BME280;50130;52.150;5.236;2022-11-03T02:23:58;100980.0;;;13.18;78.03
48892;BME280;50130;52.150;5.236;2022-11-03T02:25:41;100984.0;;;13.27;77.86
48892;BME280;50130;52.150;5.236;2022-11-03T02:27:18;100986.0;;;13.3;77.59
48892;BME280;50130;52.150;5.236;2022-11-03T02:28:55;100980.0;;;13.38;77.55
48892;BME280;50130;52.150;5.236;2022-11-03T02:30:34;100977.0;;;13.35;77.69
48892;BME280;50130;52.150;5.236;2022-11-03T02:34:03;100976.0;;;13.31;77.72
48892;BME280;50130;52.150;5.236;2022-11-03T02:37:27;100962.0;;;13.31;78.02
48892;BME280;50130;52.150;5.236;2022-11-03T02:39:10;100960.0;;;13.24;78.37
48892;BME280;50130;52.150;5.236;2022-11-03T02:42:29;100958.0;;;13.28;78.45
48892;BME280;50130;52.150;5.236;2022-11-03T02:44:11;100955.0;;;13.33;78.24
48892;BME280;50130;52.150;5.236;2022-11-03T02:45:51;100951.0;;;13.31;78.39
48892;BME280;50130;52.150;5.236;2022-11-03T02:47:28;100947.0;;;13.24;78.62
48892;BME280;50130;52.150;5.236;2022-11-03T02:50:42;100939.0;;;13.24;78.91
48892;BME280;50130;52.150;5.236;2022-11-03T02:52:34;100932.0;;;13.28;78.95
48892;BME280;50130;52.150;5.236;2022-11-03T02:54:16;100928.0;;;13.2;79.16
48892;BME280;50130;52.150;5.236;2022-11-03T02:56:00;100927.0;;;13.28;79.14
48892;BME280;50130;52.150;5.236;2022-11-03T02:59:26;100921.0;;;13.29;79.19
48892;BME280;50130;52.150;5.236;2022-11-03T03:01:09;100914.0;;;13.38;78.94
48892;BME280;50130;52.150;5.236;2022-11-03T03:02:52;100909.0;;;13.34;79.31
48892;BME280;50130;52.150;5.236;2022-11-03T03:04:35;100908.0;;;13.38;79.33
48892;BME280;50130;52.150;5.236;2022-11-03T03:06:17;100905.0;;;13.32;79.47
48892;BME280;50130;52.150;5.236;2022-11-03T03:09:42;100906.0;;;13.37;79.36
48892;BME280;50130;52.150;5.236;2022-11-03T03:11:39;100910.0;;;13.4;79.44
48892;BME280;50130;52.150;5.236;2022-11-03T03:13:19;100906.0;;;13.43;79.36
48892;BME280;50130;52.150;5.236;2022-11-03T03:14:58;100901.0;;;13.47;79.41
48892;BME280;50130;52.150;5.236;2022-11-03T03:16:43;100901.0;;;13.53;79.19
48892;BME280;50130;52.150;5.236;2022-11-03T03:20:08;100898.0;;;13.44;79.56
48892;BME280;50130;52.150;5.236;2022-11-03T03:21:52;100899.0;;;13.49;79.56
48892;BME280;50130;52.150;5.236;2022-11-03T03:23:34;100889.0;;;13.5;79.44
48892;BME280;50130;52.150;5.236;2022-11-03T03:25:14;100882.0;;;13.54;79.61
48892;BME280;50130;52.150;5.236;2022-11-03T03:28:42;100887.0;;;13.66;79.33
48892;BME280;50130;52.150;5.236;2022-11-03T03:30:23;100878.0;;;13.59;79.42
48892;BME280;50130;52.150;5.236;2022-11-03T03:32:02;100877.0;;;13.59;79.61
48892;BME280;50130;52.150;5.236;2022-11-03T03:33:43;100878.0;;;13.63;79.72
48892;BME280;50130;52.150;5.236;2022-11-03T03:35:25;100861.0;;;13.65;79.64
48892;BME280;50130;52.150;5.236;2022-11-03T03:38:45;100873.0;;;13.62;79.73
48892;BME280;50130;52.150;5.236;2022-11-03T03:40:29;100862.0;;;13.68;79.64
48892;BME280;50130;52.150;5.236;2022-11-03T03:42:08;100861.0;;;13.75;79.5
48892;BME280;50130;52.150;5.236;2022-11-03T03:43:48;100868.0;;;13.83;79.44
48892;BME280;50130;52.150;5.236;2022-11-03T03:47:08;100865.0;;;13.85;79.08
48892;BME280;50130;52.150;5.236;2022-11-03T03:48:49;100866.0;;;13.85;79.22
48892;BME280;50130;52.150;5.236;2022-11-03T03:50:27;100853.0;;;13.91;79.11
48892;BME280;50130;52.150;5.236;2022-11-03T03:52:08;100855.0;;;13.95;79.16
48892;BME280;50130;52.150;5.236;2022-11-03T03:55:34;100841.0;;;13.79;79.39
48892;BME280;50130;52.150;5.236;2022-11-03T03:57:12;100852.0;;;13.79;79.91
48892;BME280;50130;52.150;5.236;2022-11-03T03:58:50;100848.0;;;13.76;79.94
48892;BME280;50130;52.150;5.236;2022-11-03T04:00:26;100841.0;;;13.82;79.66
48892;BME280;50130;52.150;5.236;2022-11-03T04:03:39;100838.0;;;13.82;79.83
48892;BME280;50130;52.150;5.236;2022-11-03T04:05:15;100841.0;;;13.74;79.98
48892;BME280;50130;52.150;5.236;2022-11-03T04:07:46;100837.0;;;13.73;80.16
48892;BME280;50130;52.150;5.236;2022-11-03T04:09:22;100839.0;;;13.8;80.27
48892;BME280;50130;52.150;5.236;2022-11-03T04:22:16;100828.0;;;13.71;80.64
48892;BME280;50130;52.150;5.236;2022-11-03T04:23:53;100828.0;;;13.74;80.33
48892;BME280;50130;52.150;5.236;2022-11-03T04:27:18;100818.0;;;13.75;80.27
48892;BME280;50130;52.150;5.236;2022-11-03T04:29:05;100819.0;;;13.68;80.47
48892;BME280;50130;52.150;5.236;2022-11-03T04:30:44;100812.0;;;13.7;80.44
48892;BME280;50130;52.150;5.236;2022-11-03T04:32:20;100819.0;;;13.88;79.94
48892;BME280;50130;52.150;5.236;2022-11-03T04:33:56;100821.0;;;13.87;80.0
48892;BME280;50130;52.150;5.236;2022-11-03T04:37:11;100810.0;;;13.87;79.97
48892;BME280;50130;52.150;5.236;2022-11-03T04:38:48;100807.0;;;13.79;80.0
48892;BME280;50130;52.150;5.236;2022-11-03T04:40:25;100813.0;;;13.85;80.19
48892;BME280;50130;52.150;5.236;2022-11-03T04:43:51;100806.0;;;13.89;79.97
48892;BME280;50130;52.150;5.236;2022-11-03T04:45:28;100798.0;;;13.86;80.19
48892;BME280;50130;52.150;5.236;2022-11-03T04:47:08;100805.0;;;13.85;80.27
48892;BME280;50130;52.150;5.236;2022-11-03T04:48:46;100797.0;;;13.8;80.3
48892;BME280;50130;52.150;5.236;2022-11-03T04:51:59;100798.0;;;13.8;80.25
48892;BME280;50130;52.150;5.236;2022-11-03T04:53:36;100800.0;;;13.73;80.86
48892;BME280;50130;52.150;5.236;2022-11-03T04:55:14;100791.0;;;13.63;81.19
48892;BME280;50130;52.150;5.236;2022-11-03T04:58:31;100787.0;;;13.71;81.0
48892;BME280;50130;52.150;5.236;2022-11-03T05:00:13;100791.0;;;13.77;80.94
48892;BME280;50130;52.150;5.236;2022-11-03T05:01:50;100788.0;;;13.89;80.45
48892;BME280;50130;52.150;5.236;2022-11-03T05:03:30;100783.0;;;13.81;80.69
48892;BME280;50130;52.150;5.236;2022-11-03T05:06:52;100789.0;;;13.88;80.61
48892;BME280;50130;52.150;5.236;2022-11-03T05:08:28;100773.0;;;13.83;80.86
48892;BME280;50130;52.150;5.236;2022-11-03T05:10:06;100781.0;;;13.78;80.97
48892;BME280;50130;52.150;5.236;2022-11-03T05:11:47;100773.0;;;13.72;81.41
48892;BME280;50130;52.150;5.236;2022-11-03T05:15:09;100773.0;;;13.76;81.31
48892;BME280;50130;52.150;5.236;2022-11-03T05:16:59;100772.0;;;13.79;81.36
48892;BME280;50130;52.150;5.236;2022-11-03T05:18:39;100774.0;;;13.93;80.69
48892;BME280;50130;52.150;5.236;2022-11-03T05:20:27;100767.0;;;13.85;81.03
48892;BME280;50130;52.150;5.236;2022-11-03T05:22:12;100763.0;;;13.84;81.02
48892;BME280;50130;52.150;5.236;2022-11-03T05:25:39;100751.0;;;13.77;81.62
48892;BME280;50130;52.150;5.236;2022-11-03T05:27:18;100756.0;;;13.73;81.91
48892;BME280;50130;52.150;5.236;2022-11-03T05:29:01;100755.0;;;13.75;81.72
48892;BME280;50130;52.150;5.236;2022-11-03T05:30:38;100751.0;;;13.78;81.8
48892;BME280;50130;52.150;5.236;2022-11-03T05:33:58;100746.0;;;13.74;82.04
48892;BME280;50130;52.150;5.236;2022-11-03T05:35:35;100745.0;;;13.71;81.95
48892;BME280;50130;52.150;5.236;2022-11-03T05:37:21;100738.0;;;13.79;82.04
48892;BME280;50130;52.150;5.236;2022-11-03T05:39:25;100738.0;;;13.93;81.52
48892;BME280;50130;52.150;5.236;2022-11-03T05:41:04;100738.0;;;13.78;82.11
48892;BME280;50130;52.150;5.236;2022-11-03T05:44:33;100730.0;;;13.83;82.04
48892;BME280;50130;52.150;5.236;2022-11-03T05:46:11;100736.0;;;13.96;81.63
48892;BME280;50130;52.150;5.236;2022-11-03T05:47:52;100730.0;;;13.82;82.25
48892;BME280;50130;52.150;5.236;2022-11-03T05:49:29;100730.0;;;13.77;82.39
48892;BME280;50130;52.150;5.236;2022-11-03T05:52:55;100728.0;;;13.71;82.63
48892;BME280;50130;52.150;5.236;2022-11-03T05:54:34;100728.0;;;13.85;82.23
48892;BME280;50130;52.150;5.236;2022-11-03T05:56:15;100725.0;;;13.87;82.44
48892;BME280;50130;52.150;5.236;2022-11-03T05:57:54;100727.0;;;13.9;82.3
48892;BME280;50130;52.150;5.236;2022-11-03T06:01:12;100722.0;;;13.9;82.34
48892;BME280;50130;52.150;5.236;2022-11-03T06:02:52;100718.0;;;13.78;82.89
48892;BME280;50130;52.150;5.236;2022-11-03T06:04:31;100714.0;;;13.83;82.94
48892;BME280;50130;52.150;5.236;2022-11-03T06:06:14;100716.0;;;13.83;82.97
48892;BME280;50130;52.150;5.236;2022-11-03T06:09:35;100713.0;;;13.87;82.75
48892;BME280;50130;52.150;5.236;2022-11-03T06:11:20;100706.0;;;13.91;82.76
48892;BME280;50130;52.150;5.236;2022-11-03T06:13:02;100703.0;;;13.9;82.76
48892;BME280;50130;52.150;5.236;2022-11-03T06:14:47;100700.0;;;13.83;83.05
48892;BME280;50130;52.150;5.236;2022-11-03T06:18:18;100702.0;;;13.75;83.45
48892;BME280;50130;52.150;5.236;2022-11-03T06:19:58;100692.0;;;13.88;83.01
48892;BME280;50130;52.150;5.236;2022-11-03T06:21:35;100697.0;;;13.82;83.32
48892;BME280;50130;52.150;5.236;2022-11-03T06:23:14;100695.0;;;13.84;83.32
48892;BME280;50130;52.150;5.236;2022-11-03T06:24:55;100698.0;;;13.87;83.4
48892;BME280;50130;52.150;5.236;2022-11-03T06:28:14;100693.0;;;13.94;83.16
48892;BME280;50130;52.150;5.236;2022-11-03T06:29:56;100680.0;;;13.81;83.68
48892;BME280;50130;52.150;5.236;2022-11-03T06:31:37;100687.0;;;13.77;83.92
48892;BME280;50130;52.150;5.236;2022-11-03T06:33:17;100677.0;;;13.76;84.04
48892;BME280;50130;52.150;5.236;2022-11-03T06:36:35;100682.0;;;13.93;83.43
48892;BME280;50130;52.150;5.236;2022-11-03T06:38:15;100681.0;;;13.93;83.56
48892;BME280;50130;52.150;5.236;2022-11-03T06:39:57;100682.0;;;13.92;83.49
48892;BME280;50130;52.150;5.236;2022-11-03T06:41:39;100672.0;;;13.86;83.72
48892;BME280;50130;52.150;5.236;2022-11-03T06:44:56;100673.0;;;13.9;83.82
48892;BME280;50130;52.150;5.236;2022-11-03T06:46:32;100674.0;;;13.91;83.81
48892;BME280;50130;52.150;5.236;2022-11-03T06:48:13;100673.0;;;13.88;84.05
48892;BME280;50130;52.150;5.236;2022-11-03T06:49:57;100669.0;;;13.92;84.02
48892;BME280;50130;52.150;5.236;2022-11-03T06:53:18;100668.0;;;13.99;83.81
48892;BME280;50130;52.150;5.236;2022-11-03T06:55:07;100669.0;;;13.94;84.11
48892;BME280;50130;52.150;5.236;2022-11-03T06:56:53;100664.0;;;13.93;84.13
48892;BME280;50130;52.150;5.236;2022-11-03T06:58:31;100657.0;;;13.94;84.28
48892;BME280;50130;52.150;5.236;2022-11-03T07:01:54;100660.0;;;14.02;83.9
48892;BME280;50130;52.150;5.236;2022-11-03T07:03:33;100660.0;;;14.15;83.53
48892;BME280;50130;52.150;5.236;2022-11-03T07:05:17;100661.0;;;14.13;83.77
48892;BME280;50130;52.150;5.236;2022-11-03T07:07:00;100660.0;;;14.13;83.71
48892;BME280;50130;52.150;5.236;2022-11-03T07:10:18;100661.0;;;14.16;83.83
48892;BME280;50130;52.150;5.236;2022-11-03T07:11:58;100663.0;;;14.12;83.99
48892;BME280;50130;52.150;5.236;2022-11-03T07:13:36;100662.0;;;14.18;83.74
48892;BME280;50130;52.150;5.236;2022-11-03T07:15:21;100660.0;;;14.2;83.92
48892;BME280;50130;52.150;5.236;2022-11-03T07:18:40;100666.0;;;14.23;83.7
48892;BME280;50130;52.150;5.236;2022-11-03T07:20:17;100665.0;;;14.2;84.01
48892;BME280;50130;52.150;5.236;2022-11-03T07:21:55;100661.0;;;14.1;84.28
48892;BME280;50130;52.150;5.236;2022-11-03T07:23:33;100667.0;;;14.11;84.2
48892;BME280;50130;52.150;5.236;2022-11-03T07:26:55;100665.0;;;14.24;84.13
48892;BME280;50130;52.150;5.236;2022-11-03T07:28:36;100665.0;;;14.23;83.99
48892;BME280;50130;52.150;5.236;2022-11-03T07:30:18;100660.0;;;14.09;84.7
48892;BME280;50130;52.150;5.236;2022-11-03T07:31:56;100661.0;;;14.18;84.64
48892;BME280;50130;52.150;5.236;2022-11-03T07:35:29;100661.0;;;14.23;84.32
48892;BME280;50130;52.150;5.236;2022-11-03T07:37:08;100652.0;;;14.31;84.15
48892;BME280;50130;52.150;5.236;2022-11-03T07:38:51;100652.0;;;14.4;83.81
48892;BME280;50130;52.150;5.236;2022-11-03T07:40:31;100652.0;;;14.42;83.54
48892;BME280;50130;52.150;5.236;2022-11-03T07:43:54;100651.0;;;14.4;83.67
48892;BME280;50130;52.150;5.236;2022-11-03T07:45:36;100651.0;;;14.32;84.11
48892;BME280;50130;52.150;5.236;2022-11-03T07:47:15;100649.0;;;14.42;83.89
48892;BME280;50130;52.150;5.236;2022-11-03T07:48:57;100650.0;;;14.43;83.9
48892;BME280;50130;52.150;5.236;2022-11-03T07:50:34;100645.0;;;14.47;84.0
48892;BME280;50130;52.150;5.236;2022-11-03T07:53:52;100645.0;;;14.43;84.06
48892;BME280;50130;52.150;5.236;2022-11-03T07:55:30;100651.0;;;14.45;84.21
48892;BME280;50130;52.150;5.236;2022-11-03T07:57:12;100645.0;;;14.36;84.51
48892;BME280;50130;52.150;5.236;2022-11-03T08:00:35;100638.0;;;14.42;84.36
48892;BME280;50130;52.150;5.236;2022-11-03T08:02:24;100644.0;;;14.42;84.3
48892;BME280;50130;52.150;5.236;2022-11-03T08:04:06;100635.0;;;14.55;83.98
48892;BME280;50130;52.150;5.236;2022-11-03T08:05:42;100627.0;;;14.51;84.24
48892;BME280;50130;52.150;5.236;2022-11-03T08:07:19;100633.0;;;14.59;83.98
48892;BME280;50130;52.150;5.236;2022-11-03T08:10:31;100633.0;;;14.64;83.79
48892;BME280;50130;52.150;5.236;2022-11-03T08:12:07;100630.0;;;14.69;83.69
48892;BME280;50130;52.150;5.236;2022-11-03T08:13:43;100626.0;;;14.68;83.62
48892;BME280;50130;52.150;5.236;2022-11-03T08:16:56;100631.0;;;14.71;83.59
48892;BME280;50130;52.150;5.236;2022-11-03T08:18:32;100621.0;;;14.72;83.52
48892;BME280;50130;52.150;5.236;2022-11-03T08:20:09;100621.0;;;14.69;83.78
48892;BME280;50130;52.150;5.236;2022-11-03T08:23:22;100613.0;;;14.64;83.85
48892;BME280;50130;52.150;5.236;2022-11-03T08:24:58;100611.0;;;14.68;84.08
48892;BME280;50130;52.150;5.236;2022-11-03T08:26:36;100611.0;;;14.71;83.85
48892;BME280;50130;52.150;5.236;2022-11-03T08:28:12;100599.0;;;14.78;83.59
48892;BME280;50130;52.150;5.236;2022-11-03T08:31:25;100606.0;;;14.78;83.95
48892;BME280;50130;52.150;5.236;2022-11-03T08:33:01;100589.0;;;14.75;83.55
48892;BME280;50130;52.150;5.236;2022-11-03T08:34:37;100583.0;;;14.7;83.69
48892;BME280;50130;52.150;5.236;2022-11-03T08:37:50;100580.0;;;14.81;83.31
48892;BME280;50130;52.150;5.236;2022-11-03T08:39:26;100576.0;;;14.81;83.79
48892;BME280;50130;52.150;5.236;2022-11-03T08:41:02;100574.0;;;14.81;83.6
48892;BME280;50130;52.150;5.236;2022-11-03T08:44:15;100571.0;;;14.86;83.21
48892;BME280;50130;52.150;5.236;2022-11-03T08:45:52;100564.0;;;14.85;82.94
48892;BME280;50130;52.150;5.236;2022-11-03T08:47:28;100567.0;;;14.8;83.18
48892;BME280;50130;52.150;5.236;2022-11-03T08:50:42;100555.0;;;14.84;83.68
48892;BME280;50130;52.150;5.236;2022-11-03T08:52:18;100556.0;;;14.84;82.99
48892;BME280;50130;52.150;5.236;2022-11-03T08:53:55;100549.0;;;14.88;83.31
48892;BME280;50130;52.150;5.236;2022-11-03T08:55:31;100538.0;;;14.99;82.88
48892;BME280;50130;52.150;5.236;2022-11-03T08:58:44;100541.0;;;14.9;82.74
48892;BME280;50130;52.150;5.236;2022-11-03T09:00:20;100540.0;;;14.97;82.67
48892;BME280;50130;52.150;5.236;2022-11-03T09:01:56;100535.0;;;14.88;82.91
48892;BME280;50130;52.150;5.236;2022-11-03T09:05:09;100533.0;;;15.01;82.44
48892;BME280;50130;52.150;5.236;2022-11-03T09:06:46;100524.0;;;15.08;81.92
48892;BME280;50130;52.150;5.236;2022-11-03T09:08:22;100514.0;;;15.1;81.94
48892;BME280;50130;52.150;5.236;2022-11-03T09:11:35;100509.0;;;15.18;81.52
48892;BME280;50130;52.150;5.236;2022-11-03T09:13:11;100505.0;;;15.15;81.8
48892;BME280;50130;52.150;5.236;2022-11-03T09:14:47;100500.0;;;15.21;81.47
48892;BME280;50130;52.150;5.236;2022-11-03T09:16:23;100491.0;;;15.16;81.52
48892;BME280;50130;52.150;5.236;2022-11-03T09:19:35;100483.0;;;15.1;81.24
48892;BME280;50130;52.150;5.236;2022-11-03T09:21:13;100476.0;;;15.14;81.17
48892;BME280;50130;52.150;5.236;2022-11-03T09:22:50;100474.0;;;15.23;80.8
48892;BME280;50130;52.150;5.236;2022-11-03T09:26:06;100478.0;;;15.22;80.73
48892;BME280;50130;52.150;5.236;2022-11-03T09:27:42;100466.0;;;15.17;80.44
48892;BME280;50130;52.150;5.236;2022-11-03T09:29:18;100470.0;;;15.23;80.24
48892;BME280;50130;52.150;5.236;2022-11-03T09:32:32;100473.0;;;15.28;79.8
48892;BME280;50130;52.150;5.236;2022-11-03T09:34:09;100457.0;;;15.29;79.72
48892;BME280;50130;52.150;5.236;2022-11-03T09:35:45;100452.0;;;15.45;79.42
48892;BME280;50130;52.150;5.236;2022-11-03T09:37:22;100448.0;;;15.34;79.24
48892;BME280;50130;52.150;5.236;2022-11-03T09:40:34;100447.0;;;15.4;79.27
48892;BME280;50130;52.150;5.236;2022-11-03T09:42:11;100444.0;;;15.52;78.91
48892;BME280;50130;52.150;5.236;2022-11-03T09:43:48;100447.0;;;15.52;79.11
48892;BME280;50130;52.150;5.236;2022-11-03T09:47:03;100433.0;;;15.37;78.05
48892;BME280;50130;52.150;5.236;2022-11-03T09:48:41;100431.0;;;15.55;78.11
48892;BME280;50130;52.150;5.236;2022-11-03T09:50:19;100419.0;;;15.56;78.03
48892;BME280;50130;52.150;5.236;2022-11-03T09:51:56;100418.0;;;15.67;77.84
48892;BME280;50130;52.150;5.236;2022-11-03T09:55:12;100410.0;;;15.6;77.48
48892;BME280;50130;52.150;5.236;2022-11-03T09:56:50;100403.0;;;15.46;77.34
48892;BME280;50130;52.150;5.236;2022-11-03T09:58:26;100400.0;;;15.55;77.58
48892;BME280;50130;52.150;5.236;2022-11-03T10:01:39;100407.0;;;15.59;77.81
48892;BME280;50130;52.150;5.236;2022-11-03T10:03:19;100399.0;;;15.62;76.95
48892;BME280;50130;52.150;5.236;2022-11-03T10:04:57;100396.0;;;15.69;77.0
48892;BME280;50130;52.150;5.236;2022-11-03T10:06:36;100389.0;;;15.73;76.33
48892;BME280;50130;52.150;5.236;2022-11-03T10:09:58;100385.0;;;15.72;76.72
48892;BME280;50130;52.150;5.236;2022-11-03T10:11:35;100380.0;;;15.79;76.31
48892;BME280;50130;52.150;5.236;2022-11-03T10:13:18;100378.0;;;15.96;76.19
48892;BME280;50130;52.150;5.236;2022-11-03T10:15:08;100380.0;;;15.96;76.36
48892;BME280;50130;52.150;5.236;2022-11-03T10:18:32;100370.0;;;15.8;76.28
48892;BME280;50130;52.150;5.236;2022-11-03T10:20:12;100374.0;;;15.81;75.98
48892;BME280;50130;52.150;5.236;2022-11-03T10:21:49;100366.0;;;15.8;76.05
48892;BME280;50130;52.150;5.236;2022-11-03T10:23:27;100367.0;;;15.84;75.91
48892;BME280;50130;52.150;5.236;2022-11-03T10:27:20;100359.0;;;15.79;75.19
48892;BME280;50130;52.150;5.236;2022-11-03T10:29:00;100365.0;;;15.87;75.13
48892;BME280;50130;52.150;5.236;2022-11-03T10:30:46;100359.0;;;15.87;74.86
48892;BME280;50130;52.150;5.236;2022-11-03T10:32:28;100356.0;;;15.85;75.41
48892;BME280;50130;52.150;5.236;2022-11-03T10:34:22;100356.0;;;15.8;75.61
48892;BME280;50130;52.150;5.236;2022-11-03T10:36:00;100343.0;;;15.88;75.55
48892;BME280;50130;52.150;5.236;2022-11-03T10:39:23;100345.0;;;15.93;75.33
48892;BME280;50130;52.150;5.236;2022-11-03T10:41:10;100338.0;;;16.07;75.09
48892;BME280;50130;52.150;5.236;2022-11-03T10:42:57;100338.0;;;16.05;75.47
48892;BME280;50130;52.150;5.236;2022-11-03T10:44:33;100330.0;;;16.06;75.02
48892;BME280;50130;52.150;5.236;2022-11-03T10:47:59;100322.0;;;16.13;74.69
48892;BME280;50130;52.150;5.236;2022-11-03T10:49:36;100320.0;;;16.12;74.34
48892;BME280;50130;52.150;5.236;2022-11-03T10:51:12;100313.0;;;16.14;73.94
48892;BME280;50130;52.150;5.236;2022-11-03T10:52:54;100312.0;;;16.09;73.86
48892;BME280;50130;52.150;5.236;2022-11-03T10:56:10;100303.0;;;16.15;74.27
48892;BME280;50130;52.150;5.236;2022-11-03T10:57:47;100297.0;;;16.2;73.97
48892;BME280;50130;52.150;5.236;2022-11-03T10:59:30;100288.0;;;16.14;73.7
48892;BME280;50130;52.150;5.236;2022-11-03T11:01:08;100297.0;;;16.16;73.74
48892;BME280;50130;52.150;5.236;2022-11-03T11:04:24;100289.0;;;16.11;74.0
48892;BME280;50130;52.150;5.236;2022-11-03T11:06:00;100273.0;;;16.16;73.99
48892;BME280;50130;52.150;5.236;2022-11-03T11:07:38;100280.0;;;16.18;73.53
48892;BME280;50130;52.150;5.236;2022-11-03T11:11:04;100270.0;;;16.18;73.69
48892;BME280;50130;52.150;5.236;2022-11-03T11:13:01;100273.0;;;16.25;72.94
48892;BME280;50130;52.150;5.236;2022-11-03T11:14:51;100270.0;;;16.28;72.55
48892;BME280;50130;52.150;5.236;2022-11-03T11:16:46;100277.0;;;16.34;72.99
48892;BME280;50130;52.150;5.236;2022-11-03T11:19:09;100275.0;;;16.11;73.08
48892;BME280;50130;52.150;5.236;2022-11-03T11:20:46;100269.0;;;16.18;73.41
48892;BME280;50130;52.150;5.236;2022-11-03T11:22:22;100266.0;;;16.34;73.19
48892;BME280;50130;52.150;5.236;2022-11-03T11:23:58;100263.0;;;16.3;73.36